sensor_id;sensor_type;location;lat;lon;timestamp;temperature;humidity
2024;DHT22;1016;48.770;9.154;2023-04-25T00:00:16;12.70;99.90
2024;DHT22;1016;48.770;9.154;2023-04-25T00:02:42;12.80;99.90
2024;DHT22;1016;48.770;9.154;2023-04-25T00:05:08;12.80;99.90
2024;DHT22;1016;48.770;9.154;2023-04-25T00:07:34;12.80;99.90
2024;DHT22;1016;48.770;9.154;2023-04-25T00:10:00;12.90;99.90
2024;DHT22;1016;48.770;9.154;2023-04-25T00:12:25;12.90;99.90
2024;DHT22;1016;48.770;9.154;2023-04-25T00:14:54;12.90;99.90
2024;DHT22;1016;48.770;9.154;2023-04-25T00:17:22;12.90;99.90
2024;DHT22;1016;48.770;9.154;2023-04-25T00:19:50;13.00;99.90
2024;DHT22;1016;48.770;9.154;2023-04-25T00:22:15;13.00;99.90
2024;DHT22;1016;48.770;9.154;2023-04-25T00:24:41;13.00;99.90
2024;DHT22;1016;48.770;9.154;2023-04-25T00:27:07;13.00;99.90
2024;DHT22;1016;48.770;9.154;2023-04-25T00:29:33;13.00;99.90
2024;DHT22;1016;48.770;9.154;2023-04-25T00:31:59;13.00;99.90
2024;DHT22;1016;48.770;9.154;2023-04-25T00:34:24;12.90;99.90
2024;DHT22;1016;48.770;9.154;2023-04-25T00:36:50;12.90;99.90
2024;DHT22;1016;48.770;9.154;2023-04-25T00:39:15;12.90;99.90
2024;DHT22;1016;48.770;9.154;2023-04-25T00:41:41;12.80;99.90
2024;DHT22;1016;48.770;9.154;2023-04-25T00:44:09;12.90;99.90
2024;DHT22;1016;48.770;9.154;2023-04-25T00:46:36;12.90;99.90
2024;DHT22;1016;48.770;9.154;2023-04-25T00:49:03;12.90;99.90
2024;DHT22;1016;48.770;9.154;2023-04-25T00:51:29;12.90;99.90
2024;DHT22;1016;48.770;9.154;2023-04-25T00:53:56;12.90;99.90
2024;DHT22;1016;48.770;9.154;2023-04-25T00:56:21;12.90;99.90
2024;DHT22;1016;48.770;9.154;2023-04-25T00:58:48;12.90;99.90
2024;DHT22;1016;48.770;9.154;2023-04-25T01:01:13;12.90;99.90
2024;DHT22;1016;48.770;9.154;2023-04-25T01:03:40;12.90;99.90
2024;DHT22;1016;48.770;9.154;2023-04-25T01:06:08;12.90;99.90
2024;DHT22;1016;48.770;9.154;2023-04-25T01:08:34;12.90;99.90
2024;DHT22;1016;48.770;9.154;2023-04-25T01:10:59;12.90;99.90
2024;DHT22;1016;48.770;9.154;2023-04-25T01:13:25;12.90;99.90
2024;DHT22;1016;48.770;9.154;2023-04-25T01:15:50;12.90;99.90
2024;DHT22;1016;48.770;9.154;2023-04-25T01:18:16;12.90;99.90
2024;DHT22;1016;48.770;9.154;2023-04-25T01:20:42;12.90;99.90
2024;DHT22;1016;48.770;9.154;2023-04-25T01:23:07;12.90;99.90
2024;DHT22;1016;48.770;9.154;2023-04-25T01:25:33;12.90;99.90
2024;DHT22;1016;48.770;9.154;2023-04-25T01:27:59;12.90;99.90
2024;DHT22;1016;48.770;9.154;2023-04-25T01:30:28;12.90;99.90
2024;DHT22;1016;48.770;9.154;2023-04-25T01:32:55;12.80;99.90
2024;DHT22;1016;48.770;9.154;2023-04-25T01:35:22;12.80;99.90
2024;DHT22;1016;48.770;9.154;2023-04-25T01:37:49;12.80;99.90
2024;DHT22;1016;48.770;9.154;2023-04-25T01:40:16;12.80;99.90
2024;DHT22;1016;48.770;9.154;2023-04-25T01:42:44;12.80;99.90
2024;DHT22;1016;48.770;9.154;2023-04-25T01:45:10;12.80;99.90
2024;DHT22;1016;48.770;9.154;2023-04-25T01:47:36;12.80;99.90
2024;DHT22;1016;48.770;9.154;2023-04-25T01:50:04;12.80;99.90
2024;DHT22;1016;48.770;9.154;2023-04-25T01:52:30;12.80;99.90
2024;DHT22;1016;48.770;9.154;2023-04-25T01:54:57;12.80;99.90
2024;DHT22;1016;48.770;9.154;2023-04-25T01:57:22;12.80;99.90
2024;DHT22;1016;48.770;9.154;2023-04-25T01:59:48;12.80;99.90
2024;DHT22;1016;48.770;9.154;2023-04-25T02:02:14;12.80;99.90
2024;DHT22;1016;48.770;9.154;2023-04-25T02:04:39;12.70;99.90
2024;DHT22;1016;48.770;9.154;2023-04-25T02:07:05;12.80;99.90
2024;DHT22;1016;48.770;9.154;2023-04-25T02:09:31;12.70;99.90
2024;DHT22;1016;48.770;9.154;2023-04-25T02:11:56;12.70;99.90
2024;DHT22;1016;48.770;9.154;2023-04-25T02:14:21;12.70;99.90
2024;DHT22;1016;48.770;9.154;2023-04-25T02:16:47;12.70;99.90
2024;DHT22;1016;48.770;9.154;2023-04-25T02:19:12;12.70;99.90
2024;DHT22;1016;48.770;9.154;2023-04-25T02:21:38;12.70;99.90
2024;DHT22;1016;48.770;9.154;2023-04-25T02:24:04;12.70;99.90
2024;DHT22;1016;48.770;9.154;2023-04-25T02:26:29;12.60;99.90
2024;DHT22;1016;48.770;9.154;2023-04-25T02:28:56;12.60;99.90
2024;DHT22;1016;48.770;9.154;2023-04-25T02:31:22;12.60;99.90
2024;DHT22;1016;48.770;9.154;2023-04-25T02:33:48;12.70;99.90
2024;DHT22;1016;48.770;9.154;2023-04-25T02:36:13;12.60;99.90
2024;DHT22;1016;48.770;9.154;2023-04-25T02:38:39;12.60;99.90
2024;DHT22;1016;48.770;9.154;2023-04-25T02:41:05;12.60;99.90
2024;DHT22;1016;48.770;9.154;2023-04-25T02:43:30;12.60;99.90
2024;DHT22;1016;48.770;9.154;2023-04-25T02:45:56;12.60;99.90
2024;DHT22;1016;48.770;9.154;2023-04-25T02:48:21;12.60;99.90
2024;DHT22;1016;48.770;9.154;2023-04-25T02:50:47;12.60;99.90
2024;DHT22;1016;48.770;9.154;2023-04-25T02:53:12;12.60;99.90
2024;DHT22;1016;48.770;9.154;2023-04-25T02:55:38;12.60;99.90
2024;DHT22;1016;48.770;9.154;2023-04-25T02:58:04;12.50;99.90
2024;DHT22;1016;48.770;9.154;2023-04-25T03:00:30;12.50;99.90
2024;DHT22;1016;48.770;9.154;2023-04-25T03:02:55;12.50;99.90
2024;DHT22;1016;48.770;9.154;2023-04-25T03:05:21;12.50;99.90
2024;DHT22;1016;48.770;9.154;2023-04-25T03:07:46;12.40;99.90
2024;DHT22;1016;48.770;9.154;2023-04-25T03:10:12;12.50;99.90
2024;DHT22;1016;48.770;9.154;2023-04-25T03:12:38;12.40;99.90
2024;DHT22;1016;48.770;9.154;2023-04-25T03:15:04;12.40;99.90
2024;DHT22;1016;48.770;9.154;2023-04-25T03:17:30;12.40;99.90
2024;DHT22;1016;48.770;9.154;2023-04-25T03:19:57;12.40;99.90
2024;DHT22;1016;48.770;9.154;2023-04-25T03:22:23;12.40;99.90
2024;DHT22;1016;48.770;9.154;2023-04-25T03:24:49;12.40;99.90
2024;DHT22;1016;48.770;9.154;2023-04-25T03:27:14;12.40;99.90
2024;DHT22;1016;48.770;9.154;2023-04-25T03:29:40;12.30;99.90
2024;DHT22;1016;48.770;9.154;2023-04-25T03:32:06;12.40;99.90
2024;DHT22;1016;48.770;9.154;2023-04-25T03:34:31;12.40;99.90
2024;DHT22;1016;48.770;9.154;2023-04-25T03:36:57;12.40;99.90
2024;DHT22;1016;48.770;9.154;2023-04-25T03:39:22;12.40;99.90
2024;DHT22;1016;48.770;9.154;2023-04-25T03:41:48;12.40;99.90
2024;DHT22;1016;48.770;9.154;2023-04-25T03:44:13;12.40;99.90
2024;DHT22;1016;48.770;9.154;2023-04-25T03:46:39;12.40;99.90
2024;DHT22;1016;48.770;9.154;2023-04-25T03:49:04;12.30;99.90
2024;DHT22;1016;48.770;9.154;2023-04-25T03:51:30;12.30;99.90
2024;DHT22;1016;48.770;9.154;2023-04-25T03:53:56;12.30;99.90
2024;DHT22;1016;48.770;9.154;2023-04-25T03:56:21;12.30;99.90
2024;DHT22;1016;48.770;9.154;2023-04-25T03:58:47;12.30;99.90
2024;DHT22;1016;48.770;9.154;2023-04-25T04:01:12;12.30;99.90
2024;DHT22;1016;48.770;9.154;2023-04-25T04:03:38;12.40;99.90
2024;DHT22;1016;48.770;9.154;2023-04-25T04:06:04;12.40;99.90
2024;DHT22;1016;48.770;9.154;2023-04-25T04:08:31;12.40;99.90
2024;DHT22;1016;48.770;9.154;2023-04-25T04:10:57;12.30;99.90
2024;DHT22;1016;48.770;9.154;2023-04-25T04:13:23;12.30;99.90
2024;DHT22;1016;48.770;9.154;2023-04-25T04:15:49;12.20;99.90
2024;DHT22;1016;48.770;9.154;2023-04-25T04:18:14;12.20;99.90
2024;DHT22;1016;48.770;9.154;2023-04-25T04:20:40;12.20;99.90
2024;DHT22;1016;48.770;9.154;2023-04-25T04:23:06;12.10;99.90
2024;DHT22;1016;48.770;9.154;2023-04-25T04:25:31;12.10;99.90
2024;DHT22;1016;48.770;9.154;2023-04-25T04:27:56;12.10;99.90
2024;DHT22;1016;48.770;9.154;2023-04-25T04:30:23;12.10;99.90
2024;DHT22;1016;48.770;9.154;2023-04-25T04:32:55;12.10;99.90
2024;DHT22;1016;48.770;9.154;2023-04-25T04:35:22;12.10;99.90
2024;DHT22;1016;48.770;9.154;2023-04-25T04:37:47;12.10;99.90
2024;DHT22;1016;48.770;9.154;2023-04-25T04:40:14;12.10;99.90
2024;DHT22;1016;48.770;9.154;2023-04-25T04:42:41;12.10;99.90
2024;DHT22;1016;48.770;9.154;2023-04-25T04:45:07;12.10;99.90
2024;DHT22;1016;48.770;9.154;2023-04-25T04:47:33;12.10;99.90
2024;DHT22;1016;48.770;9.154;2023-04-25T04:49:59;12.10;99.90
2024;DHT22;1016;48.770;9.154;2023-04-25T04:52:24;12.00;99.90
2024;DHT22;1016;48.770;9.154;2023-04-25T04:54:50;12.00;99.90
2024;DHT22;1016;48.770;9.154;2023-04-25T04:57:15;12.00;99.90
2024;DHT22;1016;48.770;9.154;2023-04-25T04:59:42;12.10;99.90
2024;DHT22;1016;48.770;9.154;2023-04-25T05:02:07;12.10;99.90
2024;DHT22;1016;48.770;9.154;2023-04-25T05:04:33;12.20;99.90
2024;DHT22;1016;48.770;9.154;2023-04-25T05:06:58;12.20;99.90
2024;DHT22;1016;48.770;9.154;2023-04-25T05:09:24;12.20;99.90
2024;DHT22;1016;48.770;9.154;2023-04-25T05:11:52;12.30;99.90
2024;DHT22;1016;48.770;9.154;2023-04-25T05:14:18;12.20;99.90
2024;DHT22;1016;48.770;9.154;2023-04-25T05:16:43;12.20;99.90
2024;DHT22;1016;48.770;9.154;2023-04-25T05:19:09;12.20;99.90
2024;DHT22;1016;48.770;9.154;2023-04-25T05:21:34;12.20;99.90
2024;DHT22;1016;48.770;9.154;2023-04-25T05:24:01;12.20;99.90
2024;DHT22;1016;48.770;9.154;2023-04-25T05:26:26;12.20;99.90
2024;DHT22;1016;48.770;9.154;2023-04-25T05:28:59;12.20;99.90
2024;DHT22;1016;48.770;9.154;2023-04-25T05:31:25;12.30;99.90
2024;DHT22;1016;48.770;9.154;2023-04-25T05:33:50;12.20;99.90
2024;DHT22;1016;48.770;9.154;2023-04-25T05:36:16;12.20;99.90
2024;DHT22;1016;48.770;9.154;2023-04-25T05:38:41;12.20;99.90
2024;DHT22;1016;48.770;9.154;2023-04-25T05:41:07;12.10;99.90
2024;DHT22;1016;48.770;9.154;2023-04-25T05:43:33;12.20;99.90
2024;DHT22;1016;48.770;9.154;2023-04-25T05:45:58;12.30;99.90
2024;DHT22;1016;48.770;9.154;2023-04-25T05:48:24;12.30;99.90
2024;DHT22;1016;48.770;9.154;2023-04-25T05:50:49;12.30;99.90
2024;DHT22;1016;48.770;9.154;2023-04-25T05:53:17;12.20;99.90
2024;DHT22;1016;48.770;9.154;2023-04-25T05:55:42;12.00;99.90
2024;DHT22;1016;48.770;9.154;2023-04-25T05:58:08;11.90;99.90
2024;DHT22;1016;48.770;9.154;2023-04-25T06:00:33;12.00;99.90
2024;DHT22;1016;48.770;9.154;2023-04-25T06:02:59;11.90;99.90
2024;DHT22;1016;48.770;9.154;2023-04-25T06:05:24;11.80;99.90
2024;DHT22;1016;48.770;9.154;2023-04-25T06:07:50;11.80;99.90
2024;DHT22;1016;48.770;9.154;2023-04-25T06:10:16;11.80;99.90
2024;DHT22;1016;48.770;9.154;2023-04-25T06:12:41;11.80;99.90
2024;DHT22;1016;48.770;9.154;2023-04-25T06:15:07;11.80;99.90
2024;DHT22;1016;48.770;9.154;2023-04-25T06:17:33;11.90;99.90
2024;DHT22;1016;48.770;9.154;2023-04-25T06:19:58;11.90;99.90
2024;DHT22;1016;48.770;9.154;2023-04-25T06:22:24;12.00;99.90
2024;DHT22;1016;48.770;9.154;2023-04-25T06:24:50;12.10;99.90
2024;DHT22;1016;48.770;9.154;2023-04-25T06:27:15;12.20;99.90
2024;DHT22;1016;48.770;9.154;2023-04-25T06:29:40;12.20;99.90
2024;DHT22;1016;48.770;9.154;2023-04-25T06:32:06;12.20;99.90
2024;DHT22;1016;48.770;9.154;2023-04-25T06:34:31;12.20;99.90
2024;DHT22;1016;48.770;9.154;2023-04-25T06:36:57;12.20;99.90
2024;DHT22;1016;48.770;9.154;2023-04-25T06:39:22;12.20;99.90
2024;DHT22;1016;48.770;9.154;2023-04-25T06:41:50;12.20;99.90
2024;DHT22;1016;48.770;9.154;2023-04-25T06:44:15;12.20;99.90
2024;DHT22;1016;48.770;9.154;2023-04-25T06:46:41;12.20;99.90
2024;DHT22;1016;48.770;9.154;2023-04-25T06:49:06;12.20;99.90
2024;DHT22;1016;48.770;9.154;2023-04-25T06:51:32;12.20;99.90
2024;DHT22;1016;48.770;9.154;2023-04-25T06:53:57;12.10;99.90
2024;DHT22;1016;48.770;9.154;2023-04-25T06:56:23;12.10;99.90
2024;DHT22;1016;48.770;9.154;2023-04-25T06:58:49;12.00;99.90
2024;DHT22;1016;48.770;9.154;2023-04-25T07:01:14;12.00;99.90
2024;DHT22;1016;48.770;9.154;2023-04-25T07:03:40;11.90;99.90
2024;DHT22;1016;48.770;9.154;2023-04-25T07:06:06;11.90;99.90
2024;DHT22;1016;48.770;9.154;2023-04-25T07:08:31;11.90;99.90
2024;DHT22;1016;48.770;9.154;2023-04-25T07:10:57;11.90;99.90
2024;DHT22;1016;48.770;9.154;2023-04-25T07:13:22;12.00;99.90
2024;DHT22;1016;48.770;9.154;2023-04-25T07:15:48;11.90;99.90
2024;DHT22;1016;48.770;9.154;2023-04-25T07:18:14;11.90;99.90
2024;DHT22;1016;48.770;9.154;2023-04-25T07:20:39;11.90;99.90
2024;DHT22;1016;48.770;9.154;2023-04-25T07:23:05;11.90;99.90
2024;DHT22;1016;48.770;9.154;2023-04-25T07:25:30;12.00;99.90
2024;DHT22;1016;48.770;9.154;2023-04-25T07:27:56;12.00;99.90
2024;DHT22;1016;48.770;9.154;2023-04-25T07:30:22;12.00;99.90
2024;DHT22;1016;48.770;9.154;2023-04-25T07:32:48;12.00;99.90
2024;DHT22;1016;48.770;9.154;2023-04-25T07:35:14;12.00;99.90
2024;DHT22;1016;48.770;9.154;2023-04-25T07:37:40;12.10;99.90
2024;DHT22;1016;48.770;9.154;2023-04-25T07:40:06;12.10;99.90
2024;DHT22;1016;48.770;9.154;2023-04-25T07:42:33;12.00;99.90
2024;DHT22;1016;48.770;9.154;2023-04-25T07:44:58;12.00;99.90
2024;DHT22;1016;48.770;9.154;2023-04-25T07:47:24;11.90;99.90
2024;DHT22;1016;48.770;9.154;2023-04-25T07:49:50;11.90;99.90
2024;DHT22;1016;48.770;9.154;2023-04-25T07:52:15;11.80;99.90
2024;DHT22;1016;48.770;9.154;2023-04-25T07:54:41;11.80;99.90
2024;DHT22;1016;48.770;9.154;2023-04-25T07:57:07;11.80;99.90
2024;DHT22;1016;48.770;9.154;2023-04-25T07:59:32;11.70;99.90
2024;DHT22;1016;48.770;9.154;2023-04-25T08:01:58;11.80;99.90
2024;DHT22;1016;48.770;9.154;2023-04-25T08:04:24;11.70;99.90
2024;DHT22;1016;48.770;9.154;2023-04-25T08:06:50;11.70;99.90
2024;DHT22;1016;48.770;9.154;2023-04-25T08:09:17;11.60;99.90
2024;DHT22;1016;48.770;9.154;2023-04-25T08:11:42;11.70;99.90
2024;DHT22;1016;48.770;9.154;2023-04-25T08:14:08;11.70;99.90
2024;DHT22;1016;48.770;9.154;2023-04-25T08:16:34;11.70;99.90
2024;DHT22;1016;48.770;9.154;2023-04-25T08:18:59;11.80;99.90
2024;DHT22;1016;48.770;9.154;2023-04-25T08:21:25;11.90;99.90
2024;DHT22;1016;48.770;9.154;2023-04-25T08:23:52;11.90;99.90
2024;DHT22;1016;48.770;9.154;2023-04-25T08:26:18;12.00;99.90
2024;DHT22;1016;48.770;9.154;2023-04-25T08:28:43;12.00;99.90
2024;DHT22;1016;48.770;9.154;2023-04-25T08:31:09;12.00;99.90
2024;DHT22;1016;48.770;9.154;2023-04-25T08:33:35;12.00;99.90
2024;DHT22;1016;48.770;9.154;2023-04-25T08:36:01;12.00;99.90
2024;DHT22;1016;48.770;9.154;2023-04-25T08:38:26;11.90;99.90
2024;DHT22;1016;48.770;9.154;2023-04-25T08:40:52;11.80;99.90
2024;DHT22;1016;48.770;9.154;2023-04-25T08:43:19;11.80;99.90
2024;DHT22;1016;48.770;9.154;2023-04-25T08:45:46;11.80;99.90
2024;DHT22;1016;48.770;9.154;2023-04-25T08:48:13;11.80;99.90
2024;DHT22;1016;48.770;9.154;2023-04-25T08:50:52;11.80;99.90
2024;DHT22;1016;48.770;9.154;2023-04-25T08:53:25;11.80;99.90
2024;DHT22;1016;48.770;9.154;2023-04-25T08:55:51;11.80;99.90
2024;DHT22;1016;48.770;9.154;2023-04-25T08:58:18;11.80;99.90
2024;DHT22;1016;48.770;9.154;2023-04-25T09:00:46;11.90;99.90
2024;DHT22;1016;48.770;9.154;2023-04-25T09:03:12;11.90;99.90
2024;DHT22;1016;48.770;9.154;2023-04-25T09:05:40;11.90;99.90
2024;DHT22;1016;48.770;9.154;2023-04-25T09:08:05;11.90;99.90
2024;DHT22;1016;48.770;9.154;2023-04-25T09:10:31;11.90;99.90
2024;DHT22;1016;48.770;9.154;2023-04-25T09:15:30;11.80;99.90
2024;DHT22;1016;48.770;9.154;2023-04-25T09:17:56;11.70;99.90
2024;DHT22;1016;48.770;9.154;2023-04-25T09:20:22;11.60;99.90
2024;DHT22;1016;48.770;9.154;2023-04-25T09:22:48;11.50;99.90
2024;DHT22;1016;48.770;9.154;2023-04-25T09:25:13;11.50;99.90
2024;DHT22;1016;48.770;9.154;2023-04-25T09:27:53;11.60;99.90
2024;DHT22;1016;48.770;9.154;2023-04-25T09:30:31;11.60;99.90
2024;DHT22;1016;48.770;9.154;2023-04-25T09:32:58;11.70;99.90
2024;DHT22;1016;48.770;9.154;2023-04-25T09:35:28;11.60;99.90
2024;DHT22;1016;48.770;9.154;2023-04-25T09:37:55;11.60;99.90
2024;DHT22;1016;48.770;9.154;2023-04-25T09:40:21;11.60;99.90
2024;DHT22;1016;48.770;9.154;2023-04-25T09:42:46;11.60;99.90
2024;DHT22;1016;48.770;9.154;2023-04-25T09:45:13;11.50;99.90
2024;DHT22;1016;48.770;9.154;2023-04-25T09:47:40;11.40;99.90
2024;DHT22;1016;48.770;9.154;2023-04-25T09:50:14;11.50;99.90
2024;DHT22;1016;48.770;9.154;2023-04-25T09:52:40;11.50;99.90
2024;DHT22;1016;48.770;9.154;2023-04-25T09:55:06;11.40;99.90
2024;DHT22;1016;48.770;9.154;2023-04-25T09:57:33;11.40;99.90
2024;DHT22;1016;48.770;9.154;2023-04-25T10:00:00;11.30;99.90
2024;DHT22;1016;48.770;9.154;2023-04-25T10:02:27;11.30;99.90
2024;DHT22;1016;48.770;9.154;2023-04-25T10:04:56;11.30;99.90
2024;DHT22;1016;48.770;9.154;2023-04-25T10:10:03;11.10;99.90
2024;DHT22;1016;48.770;9.154;2023-04-25T10:17:26;10.90;99.90
2024;DHT22;1016;48.770;9.154;2023-04-25T10:19:54;10.90;99.90
2024;DHT22;1016;48.770;9.154;2023-04-25T10:22:38;10.80;99.90
2024;DHT22;1016;48.770;9.154;2023-04-25T10:25:04;10.90;99.90
2024;DHT22;1016;48.770;9.154;2023-04-25T10:27:31;11.00;99.90
2024;DHT22;1016;48.770;9.154;2023-04-25T10:30:09;11.10;99.90
2024;DHT22;1016;48.770;9.154;2023-04-25T10:32:37;11.00;99.90
2024;DHT22;1016;48.770;9.154;2023-04-25T10:35:17;11.00;99.90
2024;DHT22;1016;48.770;9.154;2023-04-25T10:38:05;10.90;99.90
2024;DHT22;1016;48.770;9.154;2023-04-25T10:40:34;10.80;99.90
2024;DHT22;1016;48.770;9.154;2023-04-25T10:45:56;10.80;99.90
2024;DHT22;1016;48.770;9.154;2023-04-25T10:51:09;10.80;99.90
2024;DHT22;1016;48.770;9.154;2023-04-25T10:53:35;10.70;99.90
2024;DHT22;1016;48.770;9.154;2023-04-25T10:58:44;10.80;99.90
2024;DHT22;1016;48.770;9.154;2023-04-25T11:01:12;10.90;99.90
2024;DHT22;1016;48.770;9.154;2023-04-25T11:03:40;11.00;99.90
2024;DHT22;1016;48.770;9.154;2023-04-25T11:06:15;11.00;99.90
2024;DHT22;1016;48.770;9.154;2023-04-25T11:08:51;11.00;99.90
2024;DHT22;1016;48.770;9.154;2023-04-25T11:11:17;11.00;99.90
2024;DHT22;1016;48.770;9.154;2023-04-25T11:13:43;11.10;99.90
2024;DHT22;1016;48.770;9.154;2023-04-25T11:16:09;11.10;99.90
2024;DHT22;1016;48.770;9.154;2023-04-25T11:18:35;11.00;99.90
2024;DHT22;1016;48.770;9.154;2023-04-25T11:21:00;11.00;99.90
2024;DHT22;1016;48.770;9.154;2023-04-25T11:23:28;10.90;99.90
2024;DHT22;1016;48.770;9.154;2023-04-25T11:25:55;10.90;99.90
2024;DHT22;1016;48.770;9.154;2023-04-25T11:28:21;11.00;99.90
2024;DHT22;1016;48.770;9.154;2023-04-25T11:30:49;11.00;99.90
2024;DHT22;1016;48.770;9.154;2023-04-25T11:33:16;11.00;99.90
2024;DHT22;1016;48.770;9.154;2023-04-25T11:35:41;10.90;99.90
2024;DHT22;1016;48.770;9.154;2023-04-25T11:38:07;10.90;99.90
2024;DHT22;1016;48.770;9.154;2023-04-25T11:40:32;11.00;99.90
2024;DHT22;1016;48.770;9.154;2023-04-25T11:43:00;11.10;99.90
2024;DHT22;1016;48.770;9.154;2023-04-25T11:45:26;11.00;99.90
2024;DHT22;1016;48.770;9.154;2023-04-25T11:47:52;10.90;99.90
2024;DHT22;1016;48.770;9.154;2023-04-25T11:50:17;10.90;99.90
2024;DHT22;1016;48.770;9.154;2023-04-25T11:52:44;11.00;99.90
2024;DHT22;1016;48.770;9.154;2023-04-25T11:55:14;11.10;99.90
2024;DHT22;1016;48.770;9.154;2023-04-25T11:57:41;11.20;99.90
2024;DHT22;1016;48.770;9.154;2023-04-25T12:00:16;11.20;99.90
2024;DHT22;1016;48.770;9.154;2023-04-25T12:02:55;11.10;99.90
2024;DHT22;1016;48.770;9.154;2023-04-25T12:05:25;11.00;99.90
2024;DHT22;1016;48.770;9.154;2023-04-25T12:07:51;10.90;99.90
2024;DHT22;1016;48.770;9.154;2023-04-25T12:10:18;10.80;99.90
2024;DHT22;1016;48.770;9.154;2023-04-25T12:12:47;10.70;99.90
2024;DHT22;1016;48.770;9.154;2023-04-25T12:15:32;10.70;99.90
2024;DHT22;1016;48.770;9.154;2023-04-25T12:17:58;10.70;99.90
2024;DHT22;1016;48.770;9.154;2023-04-25T12:20:26;10.60;99.90
2024;DHT22;1016;48.770;9.154;2023-04-25T12:22:52;10.70;99.90
2024;DHT22;1016;48.770;9.154;2023-04-25T12:25:37;10.70;99.90
2024;DHT22;1016;48.770;9.154;2023-04-25T12:30:54;10.90;99.90
2024;DHT22;1016;48.770;9.154;2023-04-25T12:33:21;10.90;99.90
2024;DHT22;1016;48.770;9.154;2023-04-25T12:35:47;10.90;99.90
2024;DHT22;1016;48.770;9.154;2023-04-25T12:38:21;11.00;99.90
2024;DHT22;1016;48.770;9.154;2023-04-25T12:40:46;11.00;99.90
2024;DHT22;1016;48.770;9.154;2023-04-25T12:43:12;11.10;99.90
2024;DHT22;1016;48.770;9.154;2023-04-25T12:45:37;11.20;99.90
2024;DHT22;1016;48.770;9.154;2023-04-25T12:48:03;11.20;99.90
2024;DHT22;1016;48.770;9.154;2023-04-25T12:50:28;11.30;99.90
2024;DHT22;1016;48.770;9.154;2023-04-25T12:52:54;11.40;99.90
2024;DHT22;1016;48.770;9.154;2023-04-25T12:55:19;11.50;99.90
2024;DHT22;1016;48.770;9.154;2023-04-25T12:57:45;11.50;99.90
2024;DHT22;1016;48.770;9.154;2023-04-25T13:00:11;11.60;99.90
2024;DHT22;1016;48.770;9.154;2023-04-25T13:02:40;11.70;99.90
2024;DHT22;1016;48.770;9.154;2023-04-25T13:05:06;11.80;99.90
2024;DHT22;1016;48.770;9.154;2023-04-25T13:07:31;11.90;99.90
2024;DHT22;1016;48.770;9.154;2023-04-25T13:09:57;12.10;99.90
2024;DHT22;1016;48.770;9.154;2023-04-25T13:12:23;12.30;99.90
2024;DHT22;1016;48.770;9.154;2023-04-25T13:14:48;12.30;99.90
2024;DHT22;1016;48.770;9.154;2023-04-25T13:17:14;12.20;99.90
2024;DHT22;1016;48.770;9.154;2023-04-25T13:19:39;12.20;99.90
2024;DHT22;1016;48.770;9.154;2023-04-25T13:22:05;12.10;99.90
2024;DHT22;1016;48.770;9.154;2023-04-25T13:24:30;12.00;99.90
2024;DHT22;1016;48.770;9.154;2023-04-25T13:26:56;12.00;99.90
2024;DHT22;1016;48.770;9.154;2023-04-25T13:29:21;12.00;99.90
2024;DHT22;1016;48.770;9.154;2023-04-25T13:31:47;11.90;99.90
2024;DHT22;1016;48.770;9.154;2023-04-25T13:34:12;11.90;99.90
2024;DHT22;1016;48.770;9.154;2023-04-25T13:36:38;12.00;99.90
2024;DHT22;1016;48.770;9.154;2023-04-25T13:39:03;12.10;99.90
2024;DHT22;1016;48.770;9.154;2023-04-25T13:41:32;12.20;99.90
2024;DHT22;1016;48.770;9.154;2023-04-25T13:43:58;12.20;99.90
2024;DHT22;1016;48.770;9.154;2023-04-25T13:46:23;12.20;99.90
2024;DHT22;1016;48.770;9.154;2023-04-25T13:48:49;12.20;99.90
2024;DHT22;1016;48.770;9.154;2023-04-25T13:51:15;12.20;99.90
2024;DHT22;1016;48.770;9.154;2023-04-25T13:53:42;12.20;99.90
2024;DHT22;1016;48.770;9.154;2023-04-25T13:56:08;12.20;99.90
2024;DHT22;1016;48.770;9.154;2023-04-25T13:58:33;12.20;99.90
2024;DHT22;1016;48.770;9.154;2023-04-25T14:00:59;12.20;99.90
2024;DHT22;1016;48.770;9.154;2023-04-25T14:03:25;12.30;99.90
2024;DHT22;1016;48.770;9.154;2023-04-25T14:05:51;12.40;99.90
2024;DHT22;1016;48.770;9.154;2023-04-25T14:08:16;12.40;99.90
2024;DHT22;1016;48.770;9.154;2023-04-25T14:10:42;12.40;99.90
2024;DHT22;1016;48.770;9.154;2023-04-25T14:13:07;12.50;99.90
2024;DHT22;1016;48.770;9.154;2023-04-25T14:15:34;12.70;99.90
2024;DHT22;1016;48.770;9.154;2023-04-25T14:18:00;12.80;99.90
2024;DHT22;1016;48.770;9.154;2023-04-25T14:20:27;13.00;99.90
2024;DHT22;1016;48.770;9.154;2023-04-25T14:22:52;13.20;99.90
2024;DHT22;1016;48.770;9.154;2023-04-25T14:25:19;13.20;99.90
2024;DHT22;1016;48.770;9.154;2023-04-25T14:27:45;13.20;99.90
2024;DHT22;1016;48.770;9.154;2023-04-25T14:30:15;13.40;99.90
2024;DHT22;1016;48.770;9.154;2023-04-25T14:32:41;13.60;99.90
2024;DHT22;1016;48.770;9.154;2023-04-25T14:35:07;13.70;99.90
2024;DHT22;1016;48.770;9.154;2023-04-25T14:37:32;13.70;99.90
2024;DHT22;1016;48.770;9.154;2023-04-25T14:39:58;13.70;99.90
2024;DHT22;1016;48.770;9.154;2023-04-25T14:42:23;13.70;99.90
2024;DHT22;1016;48.770;9.154;2023-04-25T14:44:49;13.50;99.90
2024;DHT22;1016;48.770;9.154;2023-04-25T14:47:16;13.50;99.90
2024;DHT22;1016;48.770;9.154;2023-04-25T14:49:42;13.30;99.90
2024;DHT22;1016;48.770;9.154;2023-04-25T14:52:07;13.40;99.90
2024;DHT22;1016;48.770;9.154;2023-04-25T14:54:33;13.30;99.90
2024;DHT22;1016;48.770;9.154;2023-04-25T14:56:58;13.80;99.90
2024;DHT22;1016;48.770;9.154;2023-04-25T14:59:24;13.40;99.90
2024;DHT22;1016;48.770;9.154;2023-04-25T15:01:50;13.50;99.90
2024;DHT22;1016;48.770;9.154;2023-04-25T15:04:16;13.50;99.90
2024;DHT22;1016;48.770;9.154;2023-04-25T15:06:42;13.60;99.90
2024;DHT22;1016;48.770;9.154;2023-04-25T15:09:08;13.60;99.90
2024;DHT22;1016;48.770;9.154;2023-04-25T15:11:36;13.40;99.90
2024;DHT22;1016;48.770;9.154;2023-04-25T15:14:02;13.70;99.90
2024;DHT22;1016;48.770;9.154;2023-04-25T15:16:27;13.50;99.90
2024;DHT22;1016;48.770;9.154;2023-04-25T15:18:53;13.70;99.90
2024;DHT22;1016;48.770;9.154;2023-04-25T15:21:18;13.70;99.90
2024;DHT22;1016;48.770;9.154;2023-04-25T15:23:44;13.80;99.90
2024;DHT22;1016;48.770;9.154;2023-04-25T15:26:09;13.80;99.90
2024;DHT22;1016;48.770;9.154;2023-04-25T15:28:36;13.80;99.90
2024;DHT22;1016;48.770;9.154;2023-04-25T15:31:01;13.80;99.90
2024;DHT22;1016;48.770;9.154;2023-04-25T15:33:27;13.80;99.90
2024;DHT22;1016;48.770;9.154;2023-04-25T15:35:52;13.80;99.90
2024;DHT22;1016;48.770;9.154;2023-04-25T15:38:18;13.90;99.90
2024;DHT22;1016;48.770;9.154;2023-04-25T15:40:44;14.00;99.90
2024;DHT22;1016;48.770;9.154;2023-04-25T15:43:10;13.90;99.90
2024;DHT22;1016;48.770;9.154;2023-04-25T15:45:40;14.00;99.90
2024;DHT22;1016;48.770;9.154;2023-04-25T15:48:06;13.90;99.90
2024;DHT22;1016;48.770;9.154;2023-04-25T15:50:32;13.90;99.90
2024;DHT22;1016;48.770;9.154;2023-04-25T15:52:57;13.90;99.90
2024;DHT22;1016;48.770;9.154;2023-04-25T15:55:23;13.70;99.90
2024;DHT22;1016;48.770;9.154;2023-04-25T15:57:51;13.10;99.90
2024;DHT22;1016;48.770;9.154;2023-04-25T16:00:17;13.60;99.90
2024;DHT22;1016;48.770;9.154;2023-04-25T16:02:44;13.50;99.90
2024;DHT22;1016;48.770;9.154;2023-04-25T16:05:10;12.80;99.90
2024;DHT22;1016;48.770;9.154;2023-04-25T16:07:38;13.40;99.90
2024;DHT22;1016;48.770;9.154;2023-04-25T16:10:04;13.40;99.90
2024;DHT22;1016;48.770;9.154;2023-04-25T16:12:30;13.40;99.90
2024;DHT22;1016;48.770;9.154;2023-04-25T16:14:56;13.40;99.90
2024;DHT22;1016;48.770;9.154;2023-04-25T16:17:23;13.30;99.90